Metar-ilmailun säätiedot     EFOU Oulu Airport
Lämpötila
2°C Lämpötila
0°C Kastepiste
87% Kosteus



Tuuli
16 KM/H
10 MPH
4 M/S
9 KTS



160°
EKA
Nykyiset olosuhteet

Pilvistä Pilvistä
Paine 1011.85 (hPa) - 29.88 (inHg)
Näkyvyys 6 (maili) - 9.7 (km)
Lentokenttä
Lentokentän koodi EFOU

Sijainti: Oulu Airport
Etäisyys:: 83 (km)

Metar:
EFOU 291420Z AUTO 16009KT 9999 OVC014 02/M00 Q1012

Aika: 29-02-2024 14:20 EET